Time;durP1;ratioP1;P1;durP2;ratioP2;P2;SDS_P1;SDS_P2;PMS_P1;PMS_P2;Temp;Humidity;BMP_temperature;BMP_pressure;BME280_temperature;BME280_humidity;BME280_pressure;Samples;Min_cycle;Max_cycle;Signal;HPM_P1;HPM_P2
2021/11/25 00:02:28;;;;;;;;;;;;;;;;;;5061653;28;19925;-69
2021/11/25 00:04:59;;;;;;;;;;;;;;;;;;5075721;28;19936;-68
2021/11/25 00:07:27;;;;;;;;;;;;;;;;;;5065409;28;19935;-68
2021/11/25 00:09:56;;;;;;;;;;;;;;;;;;5052741;28;19938;-69
2021/11/25 00:12:27;;;;;;;;;;;;;;;;;;5072452;28;19936;-69
2021/11/25 00:14:56;;;;;;;;;;;;;;;;;;5078758;28;19929;-68
2021/11/25 00:17:23;;;;;;;;;;;;;;;;;;5068498;28;20431;-68
2021/11/25 00:19:52;;;;;;;;;;;;;;;;;;5069881;28;19933;-69
2021/11/25 00:22:22;;;;;;;;;;;;;;;;;;5074731;28;19924;-69
2021/11/25 00:24:51;;;;;;;;;;;;;;;;;;5075318;28;19932;-68
2021/11/25 00:27:21;;;;;;;;;;;;;;;;;;5065738;28;19924;-69
2021/11/25 00:29:49;;;;;;;;;;;;;;;;;;5073163;28;20292;-68
2021/11/25 00:32:16;;;;;;;;;;;;;;;;;;5069208;28;19950;-68
2021/11/25 00:34:47;;;;;;;;;;;;;;;;;;5068866;28;20390;-69
2021/11/25 00:37:18;;;;;;;;;;;;;;;;;;5062715;28;19996;-69
2021/11/25 00:39:47;;;;;;;;;;;;;;;;;;5068329;28;19935;-68
2021/11/25 00:42:14;;;;;;;;;;;;;;;;;;5078982;28;19928;-70
2021/11/25 00:44:44;;;;;;;;;;;;;;;;;;5076648;28;19924;-68
2021/11/25 00:47:13;;;;;;;;;;;;;;;;;;5059762;28;19924;-68
2021/11/25 00:49:40;;;;;;;;;;;;;;;;;;5074886;28;19925;-68
2021/11/25 00:52:09;;;;;;;;;;;;;;;;;;5068319;28;20005;-68
2021/11/25 00:54:38;;;;;;;;;;;;;;;;;;5068349;28;19932;-68
2021/11/25 00:57:09;;;;;;;;;;;;;;;;;;5080864;28;20194;-69
2021/11/25 00:59:36;;;;;;;;;;;;;;;;;;5070256;28;19928;-69
2021/11/25 01:02:07;;;;;;;;;;;;;;;;;;5061271;28;20013;-69
2021/11/25 01:04:37;;;;;;;;;;;;;;;;;;5068211;28;19931;-69
2021/11/25 01:07:07;;;;;;;;;;;;;;;;;;5082690;28;19934;-68
2021/11/25 01:09:36;;;;;;;;;;;;;;;;;;5069661;28;19952;-69
2021/11/25 01:12:07;;;;;;;;;;;;;;;;;;5085907;28;19924;-69
2021/11/25 01:14:37;;;;;;;;;;;;;;;;;;5061806;28;19932;-69
2021/11/25 01:17:10;;;;;;;;;;;;;;;;;;5066217;28;19933;-68
2021/11/25 01:19:50;;;;;;;;;;;;;;;;;;5060454;28;19924;-68
2021/11/25 01:22:17;;;;;;;;;;;;;;;;;;5071959;28;19936;-68
2021/11/25 01:24:47;;;;;;;;;;;;;;;;;;5068691;28;19939;-68
2021/11/25 01:27:16;;;;;;;;;;;;;;;;;;5066969;28;20015;-69
2021/11/25 01:29:43;;;;;;;;;;;;;;;;;;5073363;28;19980;-68
2021/11/25 01:32:12;;;;;;;;;;;;;;;;;;5072735;28;20015;-70
2021/11/25 01:34:43;;;;;;;;;;;;;;;;;;5070889;28;19928;-69
2021/11/25 01:37:12;;;;;;;;;;;;;;;;;;5064464;28;20030;-69
2021/11/25 01:39:39;;;;;;;;;;;;;;;;;;5069503;28;20431;-68
2021/11/25 01:42:08;;;;;;;;;;;;;;;;;;5070798;28;19992;-69
2021/11/25 01:44:38;;;;;;;;;;;;;;;;;;5075541;28;19985;-69
2021/11/25 01:47:09;;;;;;;;;;;;;;;;;;5079243;28;19993;-68
2021/11/25 01:49:38;;;;;;;;;;;;;;;;;;5070727;28;20364;-67
2021/11/25 01:52:10;;;;;;;;;;;;;;;;;;5062764;28;19924;-69
2021/11/25 01:54:38;;;;;;;;;;;;;;;;;;5078047;28;19932;-69
2021/11/25 01:57:07;;;;;;;;;;;;;;;;;;5073941;28;19925;-68
2021/11/25 01:59:38;;;;;;;;;;;;;;;;;;5067153;28;19925;-68
2021/11/25 02:02:06;;;;;;;;;;;;;;;;;;5060876;28;19928;-68
2021/11/25 02:04:38;;;;;;;;;;;;;;;;;;5074846;28;19924;-68
2021/11/25 02:07:08;;;;;;;;;;;;;;;;;;5071170;28;19924;-68
2021/11/25 02:09:35;;;;;;;;;;;;;;;;;;5068704;28;19925;-68
2021/11/25 02:12:03;;;;;;;;;;;;;;;;;;5069973;28;20526;-68
2021/11/25 02:14:34;;;;;;;;;;;;;;;;;;5065954;28;20380;-68
2021/11/25 02:17:04;;;;;;;;;;;;;;;;;;5068145;28;19928;-68
2021/11/25 02:19:31;;;;;;;;;;;;;;;;;;5067506;28;19971;-67
2021/11/25 02:22:01;;;;;;;;;;;;;;;;;;5048800;28;19924;-68
2021/11/25 02:24:31;;;;;;;;;;;;;;;;;;5050969;28;20043;-68
2021/11/25 02:27:02;;;;;;;;;;;;;;;;;;5048772;28;19924;-68
2021/11/25 02:29:30;;;;;;;;;;;;;;;;;;5050584;28;20348;-67
2021/11/25 02:32:05;;;;;;;;;;;;;;;;;;5051008;28;19924;-67
2021/11/25 02:34:36;;;;;;;;;;;;;;;;;;5051798;28;19925;-68
2021/11/25 02:37:07;;;;;;;;;;;;;;;;;;5046090;28;19931;-68
2021/11/25 02:39:35;;;;;;;;;;;;;;;;;;5049806;28;19924;-67
2021/11/25 02:42:04;;;;;;;;;;;;;;;;;;5052790;28;19932;-68
2021/11/25 02:44:32;;;;;;;;;;;;;;;;;;5050461;28;20382;-67
2021/11/25 02:47:02;;;;;;;;;;;;;;;;;;5051339;28;20462;-67
2021/11/25 02:49:30;;;;;;;;;;;;;;;;;;5049862;28;19925;-67
2021/11/25 02:51:58;;;;;;;;;;;;;;;;;;5052412;28;19929;-68
2021/11/25 02:54:26;;;;;;;;;;;;;;;;;;5051009;28;19935;-70
2021/11/25 02:56:57;;;;;;;;;;;;;;;;;;5050361;28;19925;-69
2021/11/25 02:59:24;;;;;;;;;;;;;;;;;;5049137;28;19925;-67
2021/11/25 03:01:52;;;;;;;;;;;;;;;;;;5047117;28;19925;-68
2021/11/25 03:04:23;;;;;;;;;;;;;;;;;;5049428;28;20591;-67
2021/11/25 03:06:54;;;;;;;;;;;;;;;;;;5052170;28;19936;-67
2021/11/25 03:09:29;;;;;;;;;;;;;;;;;;5047468;28;20121;-67
2021/11/25 03:11:57;;;;;;;;;;;;;;;;;;5061741;28;20432;-67
2021/11/25 03:14:28;;;;;;;;;;;;;;;;;;5053706;28;20386;-68
2021/11/25 03:16:56;;;;;;;;;;;;;;;;;;5051184;28;19929;-69
2021/11/25 03:19:26;;;;;;;;;;;;;;;;;;5045872;28;19943;-68
2021/11/25 03:21:53;;;;;;;;;;;;;;;;;;5065636;28;20324;-69
2021/11/25 03:24:22;;;;;;;;;;;;;;;;;;5069475;28;19932;-67
2021/11/25 03:26:56;;;;;;;;;;;;;;;;;;5068980;28;19931;-67
2021/11/25 03:29:30;;;;;;;;;;;;;;;;;;5069802;28;20305;-72
2021/11/25 03:31:58;;;;;;;;;;;;;;;;;;5078398;28;19925;-67
2021/11/25 03:34:29;;;;;;;;;;;;;;;;;;5052532;28;19943;-68
2021/11/25 03:36:58;;;;;;;;;;;;;;;;;;5068938;28;20058;-67
2021/11/25 03:39:25;;;;;;;;;;;;;;;;;;5065533;28;19924;-67
2021/11/25 03:41:52;;;;;;;;;;;;;;;;;;5063153;28;20045;-67
2021/11/25 03:44:20;;;;;;;;;;;;;;;;;;5069687;28;19966;-67
2021/11/25 03:46:50;;;;;;;;;;;;;;;;;;5067736;28;19947;-68
2021/11/25 03:49:21;;;;;;;;;;;;;;;;;;5062053;28;19924;-67
2021/11/25 03:51:49;;;;;;;;;;;;;;;;;;5068593;28;19976;-68
2021/11/25 03:54:18;;;;;;;;;;;;;;;;;;5070019;28;19924;-67
2021/11/25 03:56:49;;;;;;;;;;;;;;;;;;5073142;28;19931;-67
2021/11/25 03:59:18;;;;;;;;;;;;;;;;;;5068212;28;19928;-67
2021/11/25 04:01:46;;;;;;;;;;;;;;;;;;5063721;28;19932;-68
2021/11/25 04:04:17;;;;;;;;;;;;;;;;;;5067822;28;20417;-67
2021/11/25 04:06:47;;;;;;;;;;;;;;;;;;5069027;28;19928;-68
2021/11/25 04:09:15;;;;;;;;;;;;;;;;;;5067979;28;19981;-66
2021/11/25 04:11:46;;;;;;;;;;;;;;;;;;5058445;28;19933;-67
2021/11/25 04:14:13;;;;;;;;;;;;;;;;;;5063863;28;19936;-67
2021/11/25 04:16:43;;;;;;;;;;;;;;;;;;5069038;28;19924;-66
2021/11/25 04:19:11;;;;;;;;;;;;;;;;;;5067679;28;19932;-66
2021/11/25 04:21:40;;;;;;;;;;;;;;;;;;5067735;28;20399;-67
2021/11/25 04:24:08;;;;;;;;;;;;;;;;;;5069313;28;19928;-67
2021/11/25 04:26:35;;;;;;;;;;;;;;;;;;5064135;28;20260;-67
2021/11/25 04:29:02;;;;;;;;;;;;;;;;;;5076988;28;19928;-68
2021/11/25 04:37:05;;;;;;;;;;;;;;;;;;5067394;28;19955;-67
2021/11/25 04:39:34;;;;;;;;;;;;;;;;;;5061597;28;19924;-68
2021/11/25 04:42:04;;;;;;;;;;;;;;;;;;5063487;28;19931;-67
2021/11/25 04:44:33;;;;;;;;;;;;;;;;;;5069689;28;19929;-67
2021/11/25 04:47:05;;;;;;;;;;;;;;;;;;5067925;28;19925;-67
2021/11/25 04:49:35;;;;;;;;;;;;;;;;;;5062673;28;20366;-67
2021/11/25 04:52:02;;;;;;;;;;;;;;;;;;5071720;28;19924;-67
2021/11/25 04:54:31;;;;;;;;;;;;;;;;;;5070944;28;19924;-66
2021/11/25 04:57:00;;;;;;;;;;;;;;;;;;5072766;28;20293;-66
2021/11/25 04:59:31;;;;;;;;;;;;;;;;;;5070973;28;19928;-67
2021/11/25 05:01:59;;;;;;;;;;;;;;;;;;5063786;28;20369;-67
2021/11/25 05:04:30;;;;;;;;;;;;;;;;;;5085230;28;20540;-66
2021/11/25 05:06:58;;;;;;;;;;;;;;;;;;5069191;28;19977;-67
2021/11/25 05:09:28;;;;;;;;;;;;;;;;;;5072869;28;19933;-68
2021/11/25 05:11:55;;;;;;;;;;;;;;;;;;5065523;28;20568;-66
2021/11/25 05:14:25;;;;;;;;;;;;;;;;;;5067671;28;19981;-68
2021/11/25 05:16:55;;;;;;;;;;;;;;;;;;5067437;28;19928;-67
2021/11/25 05:19:23;;;;;;;;;;;;;;;;;;5072110;28;19928;-68
2021/11/25 05:21:59;;;;;;;;;;;;;;;;;;5045005;28;19928;-67
2021/11/25 05:24:31;;;;;;;;;;;;;;;;;;5044171;28;19924;-68
2021/11/25 05:26:59;;;;;;;;;;;;;;;;;;5044508;28;19929;-66
2021/11/25 05:29:29;;;;;;;;;;;;;;;;;;5045512;28;19937;-67
2021/11/25 05:32:02;;;;;;;;;;;;;;;;;;5049541;28;19929;-67
2021/11/25 05:34:30;;;;;;;;;;;;;;;;;;5036156;28;19928;-67
2021/11/25 05:36:57;;;;;;;;;;;;;;;;;;5050461;28;19993;-67
2021/11/25 05:39:25;;;;;;;;;;;;;;;;;;5041933;28;20139;-67
2021/11/25 05:41:56;;;;;;;;;;;;;;;;;;5047215;28;19924;-67
2021/11/25 05:44:25;;;;;;;;;;;;;;;;;;5048020;28;20522;-68
2021/11/25 05:46:54;;;;;;;;;;;;;;;;;;5047839;28;20370;-67
2021/11/25 05:49:23;;;;;;;;;;;;;;;;;;5040110;28;20327;-67
2021/11/25 05:51:52;;;;;;;;;;;;;;;;;;5045616;28;19933;-66
2021/11/25 05:54:22;;;;;;;;;;;;;;;;;;5049818;28;20353;-67
2021/11/25 05:56:53;;;;;;;;;;;;;;;;;;5062283;28;19924;-67
2021/11/25 05:59:23;;;;;;;;;;;;;;;;;;5051001;28;19924;-67
2021/11/25 06:01:53;;;;;;;;;;;;;;;;;;5035784;28;20462;-67
2021/11/25 06:04:21;;;;;;;;;;;;;;;;;;5049638;28;19929;-67
2021/11/25 06:06:48;;;;;;;;;;;;;;;;;;5036058;28;19929;-66
2021/11/25 06:09:22;;;;;;;;;;;;;;;;;;5033442;28;19929;-66
2021/11/25 06:11:53;;;;;;;;;;;;;;;;;;5052272;28;20270;-67
2021/11/25 06:14:20;;;;;;;;;;;;;;;;;;5047839;28;19928;-66
2021/11/25 06:16:49;;;;;;;;;;;;;;;;;;5050801;28;20005;-67
2021/11/25 06:19:17;;;;;;;;;;;;;;;;;;5046111;28;19983;-65
2021/11/25 06:21:47;;;;;;;;;;;;;;;;;;5056791;28;21371;-66
2021/11/25 06:24:19;;;;;;;;;;;;;;;;;;5071634;28;19955;-66
2021/11/25 06:26:50;;;;;;;;;;;;;;;;;;5068478;28;20375;-66
2021/11/25 06:29:19;;;;;;;;;;;;;;;;;;5068380;28;19924;-65
2021/11/25 06:31:48;;;;;;;;;;;;;;;;;;5073104;28;19933;-66
2021/11/25 06:34:15;;;;;;;;;;;;;;;;;;5071855;28;19981;-68
2021/11/25 06:36:42;;;;;;;;;;;;;;;;;;5076245;28;20365;-67
2021/11/25 06:39:11;;;;;;;;;;;;;;;;;;5075703;28;19928;-67
2021/11/25 06:41:45;;;;;;;;;;;;;;;;;;5087552;28;19924;-67
2021/11/25 06:44:14;;;;;;;;;;;;;;;;;;5075990;28;19931;-66
2021/11/25 06:46:42;;;;;;;;;;;;;;;;;;5073661;28;20323;-66
2021/11/25 06:49:12;;;;;;;;;;;;;;;;;;5065721;28;20327;-71
2021/11/25 06:51:42;;;;;;;;;;;;;;;;;;5064128;28;20377;-68
2021/11/25 06:54:10;;;;;;;;;;;;;;;;;;5074566;28;19925;-69
2021/11/25 06:56:41;;;;;;;;;;;;;;;;;;5071044;28;20164;-67
2021/11/25 06:59:11;;;;;;;;;;;;;;;;;;5065589;28;20321;-68
2021/11/25 07:01:45;;;;;;;;;;;;;;;;;;5076778;28;20357;-67
2021/11/25 07:04:14;;;;;;;;;;;;;;;;;;5066549;28;19931;-68
2021/11/25 07:06:45;;;;;;;;;;;;;;;;;;5060706;28;19925;-67
2021/11/25 07:09:12;;;;;;;;;;;;;;;;;;5064576;28;19931;-68
2021/11/25 07:11:44;;;;;;;;;;;;;;;;;;5067998;28;20061;-68
2021/11/25 07:14:11;;;;;;;;;;;;;;;;;;5069098;28;20332;-67
2021/11/25 07:16:41;;;;;;;;;;;;;;;;;;5064693;28;20591;-68
2021/11/25 07:19:10;;;;;;;;;;;;;;;;;;5060772;28;19928;-67
2021/11/25 07:21:41;;;;;;;;;;;;;;;;;;5065951;28;19934;-68
2021/11/25 07:24:16;;;;;;;;;;;;;;;;;;5068905;28;20333;-67
2021/11/25 07:26:43;;;;;;;;;;;;;;;;;;5051677;28;19985;-69
2021/11/25 07:29:13;;;;;;;;;;;;;;;;;;5065492;28;19985;-68
2021/11/25 07:31:40;;;;;;;;;;;;;;;;;;5069811;28;19942;-69
2021/11/25 07:34:09;;;;;;;;;;;;;;;;;;5068601;28;20019;-68
2021/11/25 07:36:37;;;;;;;;;;;;;;;;;;5074510;28;19925;-67
2021/11/25 07:39:06;;;;;;;;;;;;;;;;;;5066463;28;19929;-72
2021/11/25 07:41:33;;;;;;;;;;;;;;;;;;5082085;28;19974;-67
2021/11/25 07:44:03;;;;;;;;;;;;;;;;;;5072160;28;19935;-68
2021/11/25 07:46:33;;;;;;;;;;;;;;;;;;5075015;28;19932;-67
2021/11/25 07:49:03;;;;;;;;;;;;;;;;;;5067242;28;19934;-68
2021/11/25 07:51:31;;;;;;;;;;;;;;;;;;5079461;28;19936;-65
2021/11/25 07:54:02;;;;;;;;;;;;;;;;;;5070433;28;19939;-68
2021/11/25 07:56:31;;;;;;;;;;;;;;;;;;5076680;28;19924;-67
2021/11/25 07:59:00;;;;;;;;;;;;;;;;;;5069497;28;20342;-68
2021/11/25 08:01:27;;;;;;;;;;;;;;;;;;5067646;28;19943;-69
2021/11/25 08:03:58;;;;;;;;;;;;;;;;;;5067405;28;19934;-68
2021/11/25 08:06:26;;;;;;;;;;;;;;;;;;5082205;28;19924;-67
2021/11/25 08:08:55;;;;;;;;;;;;;;;;;;5051272;28;20343;-67
2021/11/25 08:11:24;;;;;;;;;;;;;;;;;;5075126;28;19928;-67
2021/11/25 08:13:54;;;;;;;;;;;;;;;;;;5063701;28;19924;-68
2021/11/25 08:16:22;;;;;;;;;;;;;;;;;;5068863;28;19942;-68
2021/11/25 08:19:05;;;;;;;;;;;;;;;;;;5067298;28;20353;-69
2021/11/25 08:21:36;;;;;;;;;;;;;;;;;;5066951;28;20414;-71
2021/11/25 08:24:06;;;;;;;;;;;;;;;;;;5068633;28;19935;-70
2021/11/25 08:26:36;;;;;;;;;;;;;;;;;;5063166;28;19925;-70
2021/11/25 08:29:03;;;;;;;;;;;;;;;;;;5061283;28;19929;-69
2021/11/25 08:31:32;;;;;;;;;;;;;;;;;;5060364;28;19925;-68
2021/11/25 08:34:05;;;;;;;;;;;;;;;;;;5067022;28;19939;-66
2021/11/25 08:36:35;;;;;;;;;;;;;;;;;;5070834;28;19935;-67
2021/11/25 08:39:02;;;;;;;;;;;;;;;;;;5066015;28;19933;-68
2021/11/25 08:41:29;;;;;;;;;;;;;;;;;;5066928;28;19939;-65
2021/11/25 08:43:59;;;;;;;;;;;;;;;;;;5068887;28;19951;-68
2021/11/25 08:46:27;;;;;;;;;;;;;;;;;;5070619;28;19925;-66
2021/11/25 08:48:56;;;;;;;;;;;;;;;;;;5055658;28;19938;-67
2021/11/25 08:51:27;;;;;;;;;;;;;;;;;;5043691;28;19929;-68
2021/11/25 08:54:09;;;;;;;;;;;;;;;;;;5054754;28;19985;-68
2021/11/25 08:56:38;;;;;;;;;;;;;;;;;;5057193;28;19924;-68
2021/11/25 08:59:06;;;;;;;;;;;;;;;;;;5066249;28;19924;-68
2021/11/25 09:01:37;;;;;;;;;;;;;;;;;;5065640;28;19952;-69
2021/11/25 09:04:05;;;;;;;;;;;;;;;;;;5071474;28;19935;-71
2021/11/25 09:06:33;;;;;;;;;;;;;;;;;;5069799;28;19943;-70
2021/11/25 09:09:02;;;;;;;;;;;;;;;;;;5066510;28;19935;-69
2021/11/25 09:11:33;;;;;;;;;;;;;;;;;;5057330;28;19924;-70
2021/11/25 09:14:16;;;;;;;;;;;;;;;;;;5069322;28;20025;-70
2021/11/25 09:16:44;;;;;;;;;;;;;;;;;;5069040;28;19942;-70
2021/11/25 09:19:11;;;;;;;;;;;;;;;;;;5064197;28;19928;-71
2021/11/25 09:21:41;;;;;;;;;;;;;;;;;;5065595;28;19925;-69
2021/11/25 09:24:08;;;;;;;;;;;;;;;;;;5070618;28;19924;-67
2021/11/25 09:26:38;;;;;;;;;;;;;;;;;;5073980;28;19932;-70
2021/11/25 09:29:09;;;;;;;;;;;;;;;;;;5064169;28;19929;-69
2021/11/25 09:31:38;;;;;;;;;;;;;;;;;;5064110;28;19959;-67
2021/11/25 09:34:10;;;;;;;;;;;;;;;;;;5072237;28;19935;-68
2021/11/25 09:36:44;;;;;;;;;;;;;;;;;;5077311;28;20362;-68
2021/11/25 09:39:12;;;;;;;;;;;;;;;;;;5064668;28;19933;-69
2021/11/25 09:41:39;;;;;;;;;;;;;;;;;;5073262;28;19996;-68
2021/11/25 09:44:08;;;;;;;;;;;;;;;;;;5069254;28;20409;-68
2021/11/25 09:46:39;;;;;;;;;;;;;;;;;;5080101;28;20373;-68
2021/11/25 09:49:10;;;;;;;;;;;;;;;;;;5060986;28;20370;-67
2021/11/25 09:51:40;;;;;;;;;;;;;;;;;;5075423;28;19928;-66
2021/11/25 09:54:11;;;;;;;;;;;;;;;;;;5067902;28;19933;-67
2021/11/25 09:56:41;;;;;;;;;;;;;;;;;;5071104;28;19939;-67
2021/11/25 09:59:08;;;;;;;;;;;;;;;;;;5069528;28;19932;-67
2021/11/25 10:01:39;;;;;;;;;;;;;;;;;;5070568;28;20281;-65
2021/11/25 10:04:07;;;;;;;;;;;;;;;;;;5069745;28;19925;-67
2021/11/25 10:06:37;;;;;;;;;;;;;;;;;;5068054;28;19942;-69
2021/11/25 10:09:05;;;;;;;;;;;;;;;;;;5068674;28;20470;-69
2021/11/25 10:11:33;;;;;;;;;;;;;;;;;;5078744;28;19928;-67
2021/11/25 10:14:05;;;;;;;;;;;;;;;;;;5068673;28;19932;-68
2021/11/25 10:16:35;;;;;;;;;;;;;;;;;;5067796;28;19935;-68
2021/11/25 10:19:02;;;;;;;;;;;;;;;;;;5067629;28;19924;-70
2021/11/25 10:21:33;;;;;;;;;;;;;;;;;;5070175;28;20421;-68
2021/11/25 10:24:01;;;;;;;;;;;;;;;;;;5074226;28;19929;-69
2021/11/25 10:26:32;;;;;;;;;;;;;;;;;;5069566;28;19924;-67
2021/11/25 10:29:01;;;;;;;;;;;;;;;;;;5062316;28;19928;-67
2021/11/25 10:31:42;;;;;;;;;;;;;;;;;;5068346;28;19929;-67
2021/11/25 10:34:15;;;;;;;;;;;;;;;;;;5084205;28;20372;-66
2021/11/25 10:42:16;;;;;;;;;;;;;;;;;;5065413;28;19935;-68
2021/11/25 10:44:45;;;;;;;;;;;;;;;;;;5071531;28;19929;-68
2021/11/25 10:47:14;;;;;;;;;;;;;;;;;;5068751;28;20336;-69
2021/11/25 10:49:44;;;;;;;;;;;;;;;;;;5078619;28;19924;-69
2021/11/25 10:52:11;;;;;;;;;;;;;;;;;;5069258;28;19925;-67
2021/11/25 10:54:40;;;;;;;;;;;;;;;;;;5068558;28;19932;-68
2021/11/25 10:57:09;;;;;;;;;;;;;;;;;;5070171;28;19933;-69
2021/11/25 10:59:38;;;;;;;;;;;;;;;;;;5052492;28;20345;-68
2021/11/25 11:02:20;;;;;;;;;;;;;;;;;;5066478;28;19998;-70
2021/11/25 11:04:50;;;;;;;;;;;;;;;;;;5077150;28;19925;-71
2021/11/25 11:07:17;;;;;;;;;;;;;;;;;;5059839;28;19928;-70
2021/11/25 11:09:46;;;;;;;;;;;;;;;;;;5072283;28;19924;-70
2021/11/25 11:12:18;;;;;;;;;;;;;;;;;;5066744;28;19925;-70
2021/11/25 11:14:56;;;;;;;;;;;;;;;;;;5065953;28;19930;-70
2021/11/25 11:17:46;;;;;;;;;;;;;;;;;;5047904;28;19932;-71
2021/11/25 11:20:12;;;;;;;;;;;;;;;;;;5070688;28;20134;-70
2021/11/25 11:22:42;;;;;;;;;;;;;;;;;;5072654;28;20460;-70
2021/11/25 11:25:09;;;;;;;;;;;;;;;;;;5062685;28;20338;-71
2021/11/25 11:27:46;;;;;;;;;;;;;;;;;;5068994;28;20389;-70
2021/11/25 11:30:13;;;;;;;;;;;;;;;;;;5054877;28;19935;-67
2021/11/25 11:32:52;;;;;;;;;;;;;;;;;;5069202;28;19929;-69
2021/11/25 11:35:22;;;;;;;;;;;;;;;;;;5077569;28;19924;-70
2021/11/25 11:37:52;;;;;;;;;;;;;;;;;;5067033;28;19936;-70
2021/11/25 11:40:23;;;;;;;;;;;;;;;;;;5074856;28;19965;-69
2021/11/25 11:42:55;;;;;;;;;;;;;;;;;;5066555;28;20420;-69
2021/11/25 11:45:30;;;;;;;;;;;;;;;;;;5066847;28;19963;-68
2021/11/25 11:48:03;;;;;;;;;;;;;;;;;;5067552;28;19935;-69
2021/11/25 11:50:30;;;;;;;;;;;;;;;;;;5059201;28;19931;-70
2021/11/25 11:52:57;;;;;;;;;;;;;;;;;;5076022;28;19932;-67
2021/11/25 11:55:26;;;;;;;;;;;;;;;;;;5065303;28;19925;-69
2021/11/25 11:57:57;;;;;;;;;;;;;;;;;;5089393;28;19928;-68
2021/11/25 12:00:28;;;;;;;;;;;;;;;;;;5066946;28;19928;-70
2021/11/25 12:02:57;;;;;;;;;;;;;;;;;;5067358;28;20392;-66
2021/11/25 12:05:27;;;;;;;;;;;;;;;;;;5065494;28;19939;-66
2021/11/25 12:07:58;;;;;;;;;;;;;;;;;;5062258;28;19977;-66
2021/11/25 12:10:27;;;;;;;;;;;;;;;;;;5070029;28;19955;-66
2021/11/25 12:12:56;;;;;;;;;;;;;;;;;;5080749;28;19935;-66
2021/11/25 12:15:25;;;;;;;;;;;;;;;;;;5064584;28;19931;-68
2021/11/25 12:17:56;;;;;;;;;;;;;;;;;;5070072;28;19924;-68
2021/11/25 12:20:33;;;;;;;;;;;;;;;;;;5048095;28;19932;-69
2021/11/25 12:23:03;;;;;;;;;;;;;;;;;;5067738;28;19951;-69
2021/11/25 12:25:40;;;;;;;;;;;;;;;;;;5066377;28;19936;-68
2021/11/25 12:28:09;;;;;;;;;;;;;;;;;;5068094;28;19939;-68
2021/11/25 12:30:41;;;;;;;;;;;;;;;;;;5068198;28;19924;-66
2021/11/25 12:33:10;;;;;;;;;;;;;;;;;;5069358;28;19932;-66
2021/11/25 12:35:39;;;;;;;;;;;;;;;;;;5068304;28;19987;-66
2021/11/25 12:38:12;;;;;;;;;;;;;;;;;;5073973;28;19993;-66
2021/11/25 12:40:46;;;;;;;;;;;;;;;;;;5066365;28;19932;-69
2021/11/25 12:43:16;;;;;;;;;;;;;;;;;;5063909;28;19925;-70
2021/11/25 12:45:46;;;;;;;;;;;;;;;;;;5067695;28;19988;-71
2021/11/25 12:48:17;;;;;;;;;;;;;;;;;;5067543;28;19997;-69
2021/11/25 12:50:50;;;;;;;;;;;;;;;;;;5064267;28;19974;-68
2021/11/25 12:53:26;;;;;;;;;;;;;;;;;;5067558;28;20370;-70
2021/11/25 12:55:55;;;;;;;;;;;;;;;;;;5069471;28;19943;-70
2021/11/25 12:58:23;;;;;;;;;;;;;;;;;;5069413;28;20379;-71
2021/11/25 13:00:53;;;;;;;;;;;;;;;;;;5069070;28;20122;-67
2021/11/25 13:03:22;;;;;;;;;;;;;;;;;;5064537;28;19947;-69
2021/11/25 13:05:49;;;;;;;;;;;;;;;;;;5075018;28;19932;-67
2021/11/25 13:08:18;;;;;;;;;;;;;;;;;;5066274;28;19924;-68
2021/11/25 13:10:48;;;;;;;;;;;;;;;;;;5066755;28;19940;-68
2021/11/25 13:13:18;;;;;;;;;;;;;;;;;;5069272;28;20192;-69
2021/11/25 13:15:49;;;;;;;;;;;;;;;;;;5066420;28;19991;-70
2021/11/25 13:18:20;;;;;;;;;;;;;;;;;;5067761;28;19924;-70
2021/11/25 13:20:49;;;;;;;;;;;;;;;;;;5057868;28;19928;-70
2021/11/25 13:23:17;;;;;;;;;;;;;;;;;;5066301;28;19929;-69
2021/11/25 13:25:46;;;;;;;;;;;;;;;;;;5060923;28;19935;-71
2021/11/25 13:28:13;;;;;;;;;;;;;;;;;;5070176;28;19932;-69
2021/11/25 13:30:43;;;;;;;;;;;;;;;;;;5067010;28;19944;-70
2021/11/25 13:33:11;;;;;;;;;;;;;;;;;;5065200;28;19935;-71
2021/11/25 13:35:42;;;;;;;;;;;;;;;;;;5065026;28;19925;-72
2021/11/25 13:38:09;;;;;;;;;;;;;;;;;;5064319;28;19928;-71
2021/11/25 13:40:37;;;;;;;;;;;;;;;;;;5066713;28;20326;-71
2021/11/25 13:43:09;;;;;;;;;;;;;;;;;;5064658;28;19929;-72
2021/11/25 13:45:36;;;;;;;;;;;;;;;;;;5062697;28;19937;-73
2021/11/25 13:48:03;;;;;;;;;;;;;;;;;;5058973;28;19929;-72
2021/11/25 13:50:32;;;;;;;;;;;;;;;;;;5074214;28;19925;-72
2021/11/25 13:53:05;;;;;;;;;;;;;;;;;;5065726;28;19928;-70
2021/11/25 13:55:35;;;;;;;;;;;;;;;;;;5068859;28;19936;-69
2021/11/25 13:58:04;;;;;;;;;;;;;;;;;;5065864;28;19932;-69
2021/11/25 14:00:31;;;;;;;;;;;;;;;;;;5063607;28;19928;-67
2021/11/25 14:03:02;;;;;;;;;;;;;;;;;;5064752;28;19929;-68
2021/11/25 14:05:32;;;;;;;;;;;;;;;;;;5079398;28;20166;-66
2021/11/25 14:08:01;;;;;;;;;;;;;;;;;;5071626;28;19936;-66
2021/11/25 14:10:32;;;;;;;;;;;;;;;;;;5066253;28;19928;-67
2021/11/25 14:13:08;;;;;;;;;;;;;;;;;;5074214;28;20373;-65
2021/11/25 14:15:44;;;;;;;;;;;;;;;;;;5067745;28;19932;-66
2021/11/25 14:18:12;;;;;;;;;;;;;;;;;;5084277;28;19924;-66
2021/11/25 14:20:43;;;;;;;;;;;;;;;;;;5066666;28;19939;-66
2021/11/25 14:23:12;;;;;;;;;;;;;;;;;;5075727;28;19924;-66
2021/11/25 14:25:43;;;;;;;;;;;;;;;;;;5066969;28;19939;-67
2021/11/25 14:31:14;;;;;;;;;;;;;;;;;;5066236;28;19928;-67
2021/11/25 14:33:49;;;;;;;;;;;;;;;;;;5052530;28;19964;-73
2021/11/25 14:36:18;;;;;;;;;;;;;;;;;;5067588;28;19932;-68
2021/11/25 14:38:49;;;;;;;;;;;;;;;;;;5074475;28;20288;-69
2021/11/25 14:41:19;;;;;;;;;;;;;;;;;;5064402;28;19925;-71
2021/11/25 14:43:48;;;;;;;;;;;;;;;;;;5071697;28;20301;-72
2021/11/25 14:46:17;;;;;;;;;;;;;;;;;;5065187;28;19924;-71
2021/11/25 14:48:44;;;;;;;;;;;;;;;;;;5071416;28;19932;-72
2021/11/25 14:51:11;;;;;;;;;;;;;;;;;;5065165;28;19951;-69
2021/11/25 14:53:40;;;;;;;;;;;;;;;;;;5068738;28;19958;-71
2021/11/25 14:56:15;;;;;;;;;;;;;;;;;;5069975;28;19924;-69
2021/11/25 14:58:44;;;;;;;;;;;;;;;;;;5068299;28;19977;-70
2021/11/25 15:01:11;;;;;;;;;;;;;;;;;;5069926;28;20370;-69
2021/11/25 15:03:46;;;;;;;;;;;;;;;;;;5064017;28;20366;-71
2021/11/25 15:06:18;;;;;;;;;;;;;;;;;;5070353;28;19924;-72
2021/11/25 15:08:46;;;;;;;;;;;;;;;;;;5060757;28;19929;-69
2021/11/25 15:11:14;;;;;;;;;;;;;;;;;;5063933;28;19997;-72
2021/11/25 15:13:42;;;;;;;;;;;;;;;;;;5068717;28;19931;-71
2021/11/25 15:16:11;;;;;;;;;;;;;;;;;;5063829;28;19936;-71
2021/11/25 15:18:42;;;;;;;;;;;;;;;;;;5067723;28;19950;-70
2021/11/25 15:21:11;;;;;;;;;;;;;;;;;;5066764;28;19925;-71
2021/11/25 15:23:40;;;;;;;;;;;;;;;;;;5069837;28;19939;-71
2021/11/25 15:26:10;;;;;;;;;;;;;;;;;;5068241;28;19977;-69
2021/11/25 15:28:39;;;;;;;;;;;;;;;;;;5065655;28;19928;-70
2021/11/25 15:31:22;;;;;;;;;;;;;;;;;;5074595;28;19908;-70
2021/11/25 15:33:53;;;;;;;;;;;;;;;;;;5065781;28;20381;-70
2021/11/25 15:36:23;;;;;;;;;;;;;;;;;;5092453;28;20050;-67
2021/11/25 15:38:55;;;;;;;;;;;;;;;;;;5066584;28;19932;-70
2021/11/25 15:41:26;;;;;;;;;;;;;;;;;;5079466;28;19928;-69
2021/11/25 15:43:57;;;;;;;;;;;;;;;;;;5065801;28;19956;-69
2021/11/25 15:46:27;;;;;;;;;;;;;;;;;;5075878;28;19958;-69
2021/11/25 15:48:58;;;;;;;;;;;;;;;;;;5067407;28;20373;-69
2021/11/25 15:51:29;;;;;;;;;;;;;;;;;;5062179;28;20053;-73
2021/11/25 15:53:58;;;;;;;;;;;;;;;;;;5086901;28;19932;-70
2021/11/25 15:56:30;;;;;;;;;;;;;;;;;;5065585;28;19985;-68
2021/11/25 15:59:01;;;;;;;;;;;;;;;;;;5062584;28;20358;-71
2021/11/25 16:01:28;;;;;;;;;;;;;;;;;;5069655;28;19955;-71
2021/11/25 16:03:59;;;;;;;;;;;;;;;;;;5062983;28;19928;-71
2021/11/25 16:06:27;;;;;;;;;;;;;;;;;;5065740;28;19932;-69
2021/11/25 16:08:57;;;;;;;;;;;;;;;;;;5062913;28;19924;-70
2021/11/25 16:11:26;;;;;;;;;;;;;;;;;;5063206;28;19985;-69
2021/11/25 16:14:03;;;;;;;;;;;;;;;;;;5067168;28;19938;-68
2021/11/25 16:16:30;;;;;;;;;;;;;;;;;;5064025;28;19932;-67
2021/11/25 16:18:58;;;;;;;;;;;;;;;;;;5066412;28;19935;-66
2021/11/25 16:21:27;;;;;;;;;;;;;;;;;;5059268;28;19935;-66
2021/11/25 16:24:00;;;;;;;;;;;;;;;;;;5063439;28;19934;-67
2021/11/25 16:26:30;;;;;;;;;;;;;;;;;;5063638;28;19925;-68
2021/11/25 16:28:58;;;;;;;;;;;;;;;;;;5059538;28;20431;-66
2021/11/25 16:31:29;;;;;;;;;;;;;;;;;;5063829;28;19932;-67
2021/11/25 16:33:56;;;;;;;;;;;;;;;;;;5065417;28;19935;-66
2021/11/25 16:36:26;;;;;;;;;;;;;;;;;;5065451;28;19932;-66
2021/11/25 16:38:55;;;;;;;;;;;;;;;;;;5064239;28;19924;-66
2021/11/25 16:41:22;;;;;;;;;;;;;;;;;;5061737;28;19925;-67
2021/11/25 16:43:53;;;;;;;;;;;;;;;;;;5067006;28;20082;-67
2021/11/25 16:46:55;;;;;;;;;;;;;;;;;;5067894;28;19932;-67
2021/11/25 16:49:23;;;;;;;;;;;;;;;;;;5062536;28;19924;-66
2021/11/25 16:51:51;;;;;;;;;;;;;;;;;;5060186;28;19957;-66
2021/11/25 16:54:19;;;;;;;;;;;;;;;;;;5070527;28;19924;-66
2021/11/25 16:56:51;;;;;;;;;;;;;;;;;;5066531;28;19928;-66
2021/11/25 16:59:22;;;;;;;;;;;;;;;;;;5062814;28;19924;-66
2021/11/25 17:01:51;;;;;;;;;;;;;;;;;;5066780;28;19975;-66
2021/11/25 17:04:19;;;;;;;;;;;;;;;;;;5076935;28;19924;-66
2021/11/25 17:06:50;;;;;;;;;;;;;;;;;;5066085;28;19925;-66
2021/11/25 17:09:22;;;;;;;;;;;;;;;;;;5068117;28;19936;-66
2021/11/25 17:11:51;;;;;;;;;;;;;;;;;;5077187;28;19978;-66
2021/11/25 17:14:22;;;;;;;;;;;;;;;;;;5072088;28;20015;-66
2021/11/25 17:16:50;;;;;;;;;;;;;;;;;;5075670;28;20011;-65
2021/11/25 17:19:20;;;;;;;;;;;;;;;;;;5073912;28;21283;-68